sensor_id;sensor_type;location;lat;lon;timestamp;P1;durP1;ratioP1;P2;durP2;ratioP2
71106;SDS011;58763;47.982;11.516;2022-08-19T00:00:24;6.07;;;3.60;;
71106;SDS011;58763;47.982;11.516;2022-08-19T00:02:49;6.18;;;3.58;;
71106;SDS011;58763;47.982;11.516;2022-08-19T00:05:15;5.35;;;3.75;;
71106;SDS011;58763;47.982;11.516;2022-08-19T00:07:41;5.43;;;3.50;;
71106;SDS011;58763;47.982;11.516;2022-08-19T00:10:08;5.63;;;3.58;;
71106;SDS011;58763;47.982;11.516;2022-08-19T00:12:35;5.45;;;3.35;;
71106;SDS011;58763;47.982;11.516;2022-08-19T00:15:03;6.18;;;3.95;;
71106;SDS011;58763;47.982;11.516;2022-08-19T00:17:31;5.75;;;3.78;;
71106;SDS011;58763;47.982;11.516;2022-08-19T00:19:56;5.03;;;3.33;;
71106;SDS011;58763;47.982;11.516;2022-08-19T00:22:21;6.03;;;3.95;;
71106;SDS011;58763;47.982;11.516;2022-08-19T00:24:47;6.22;;;4.03;;
71106;SDS011;58763;47.982;11.516;2022-08-19T00:27:13;6.20;;;3.50;;
71106;SDS011;58763;47.982;11.516;2022-08-19T00:29:38;7.50;;;3.88;;
71106;SDS011;58763;47.982;11.516;2022-08-19T00:32:04;6.57;;;4.00;;
71106;SDS011;58763;47.982;11.516;2022-08-19T00:34:31;7.10;;;3.90;;
71106;SDS011;58763;47.982;11.516;2022-08-19T00:36:56;5.15;;;3.50;;
71106;SDS011;58763;47.982;11.516;2022-08-19T00:39:22;6.07;;;3.83;;
71106;SDS011;58763;47.982;11.516;2022-08-19T00:41:49;7.00;;;3.53;;
71106;SDS011;58763;47.982;11.516;2022-08-19T00:44:21;5.82;;;3.40;;
71106;SDS011;58763;47.982;11.516;2022-08-19T00:46:50;5.43;;;3.35;;
71106;SDS011;58763;47.982;11.516;2022-08-19T00:49:59;5.38;;;3.42;;
71106;SDS011;58763;47.982;11.516;2022-08-19T00:52:14;5.18;;;3.38;;
71106;SDS011;58763;47.982;11.516;2022-08-19T00:54:44;6.03;;;3.80;;
71106;SDS011;58763;47.982;11.516;2022-08-19T00:57:13;5.45;;;3.60;;
71106;SDS011;58763;47.982;11.516;2022-08-19T00:59:43;8.88;;;4.03;;
71106;SDS011;58763;47.982;11.516;2022-08-19T01:02:11;5.32;;;3.53;;
71106;SDS011;58763;47.982;11.516;2022-08-19T01:04:37;6.43;;;3.97;;
71106;SDS011;58763;47.982;11.516;2022-08-19T01:07:03;5.10;;;3.20;;
71106;SDS011;58763;47.982;11.516;2022-08-19T01:09:29;7.50;;;3.83;;
71106;SDS011;58763;47.982;11.516;2022-08-19T01:11:54;6.97;;;3.88;;
71106;SDS011;58763;47.982;11.516;2022-08-19T01:14:21;6.15;;;3.65;;
71106;SDS011;58763;47.982;11.516;2022-08-19T01:16:47;7.35;;;4.18;;
71106;SDS011;58763;47.982;11.516;2022-08-19T01:19:21;8.30;;;4.55;;
71106;SDS011;58763;47.982;11.516;2022-08-19T01:22:37;5.63;;;3.88;;
71106;SDS011;58763;47.982;11.516;2022-08-19T01:24:45;8.60;;;4.25;;
71106;SDS011;58763;47.982;11.516;2022-08-19T01:27:10;6.07;;;3.95;;
71106;SDS011;58763;47.982;11.516;2022-08-19T01:29:37;7.00;;;4.10;;
71106;SDS011;58763;47.982;11.516;2022-08-19T01:32:06;5.63;;;3.63;;
71106;SDS011;58763;47.982;11.516;2022-08-19T01:34:32;6.35;;;4.05;;
71106;SDS011;58763;47.982;11.516;2022-08-19T01:36:59;7.40;;;4.78;;
71106;SDS011;58763;47.982;11.516;2022-08-19T01:39:27;6.55;;;4.10;;
71106;SDS011;58763;47.982;11.516;2022-08-19T01:41:53;6.32;;;3.97;;
71106;SDS011;58763;47.982;11.516;2022-08-19T01:44:20;6.93;;;4.50;;
71106;SDS011;58763;47.982;11.516;2022-08-19T01:46:49;6.28;;;3.78;;
71106;SDS011;58763;47.982;11.516;2022-08-19T01:49:19;6.72;;;4.18;;
71106;SDS011;58763;47.982;11.516;2022-08-19T01:54:13;6.78;;;4.07;;
71106;SDS011;58763;47.982;11.516;2022-08-19T01:56:40;6.78;;;4.55;;
71106;SDS011;58763;47.982;11.516;2022-08-19T01:59:09;7.95;;;3.65;;
71106;SDS011;58763;47.982;11.516;2022-08-19T02:01:37;6.70;;;4.05;;
71106;SDS011;58763;47.982;11.516;2022-08-19T02:04:03;6.88;;;4.50;;
71106;SDS011;58763;47.982;11.516;2022-08-19T02:06:28;6.15;;;4.13;;
71106;SDS011;58763;47.982;11.516;2022-08-19T02:08:55;7.20;;;3.92;;
71106;SDS011;58763;47.982;11.516;2022-08-19T02:11:22;6.47;;;4.20;;
71106;SDS011;58763;47.982;11.516;2022-08-19T02:13:52;6.05;;;3.90;;
71106;SDS011;58763;47.982;11.516;2022-08-19T02:16:19;7.53;;;3.83;;
71106;SDS011;58763;47.982;11.516;2022-08-19T02:18:46;7.15;;;4.53;;
71106;SDS011;58763;47.982;11.516;2022-08-19T02:21:14;8.75;;;4.10;;
71106;SDS011;58763;47.982;11.516;2022-08-19T02:23:41;6.80;;;4.30;;
71106;SDS011;58763;47.982;11.516;2022-08-19T02:26:07;7.43;;;4.00;;
71106;SDS011;58763;47.982;11.516;2022-08-19T02:28:32;6.72;;;4.25;;
71106;SDS011;58763;47.982;11.516;2022-08-19T02:30:58;7.45;;;4.22;;
71106;SDS011;58763;47.982;11.516;2022-08-19T02:33:26;6.47;;;3.97;;
71106;SDS011;58763;47.982;11.516;2022-08-19T02:35:51;5.90;;;3.92;;
71106;SDS011;58763;47.982;11.516;2022-08-19T02:38:17;6.82;;;4.32;;
71106;SDS011;58763;47.982;11.516;2022-08-19T02:40:52;6.88;;;4.70;;
71106;SDS011;58763;47.982;11.516;2022-08-19T02:43:23;7.78;;;4.18;;
71106;SDS011;58763;47.982;11.516;2022-08-19T02:45:49;6.32;;;4.07;;
71106;SDS011;58763;47.982;11.516;2022-08-19T02:48:16;6.47;;;4.20;;
71106;SDS011;58763;47.982;11.516;2022-08-19T02:50:44;8.63;;;4.10;;
71106;SDS011;58763;47.982;11.516;2022-08-19T02:53:10;7.25;;;4.10;;
71106;SDS011;58763;47.982;11.516;2022-08-19T02:55:41;7.28;;;4.05;;
71106;SDS011;58763;47.982;11.516;2022-08-19T02:58:08;6.80;;;4.10;;
71106;SDS011;58763;47.982;11.516;2022-08-19T03:00:34;7.38;;;4.18;;
71106;SDS011;58763;47.982;11.516;2022-08-19T03:02:59;7.00;;;4.45;;
71106;SDS011;58763;47.982;11.516;2022-08-19T03:05:25;7.13;;;4.00;;
71106;SDS011;58763;47.982;11.516;2022-08-19T03:07:52;6.65;;;4.13;;
71106;SDS011;58763;47.982;11.516;2022-08-19T03:10:18;7.00;;;4.30;;
71106;SDS011;58763;47.982;11.516;2022-08-19T03:12:43;6.70;;;4.40;;
71106;SDS011;58763;47.982;11.516;2022-08-19T03:15:10;5.40;;;3.50;;
71106;SDS011;58763;47.982;11.516;2022-08-19T03:17:35;5.95;;;3.80;;
71106;SDS011;58763;47.982;11.516;2022-08-19T03:20:01;6.60;;;3.88;;
71106;SDS011;58763;47.982;11.516;2022-08-19T03:22:26;7.07;;;3.75;;
71106;SDS011;58763;47.982;11.516;2022-08-19T03:24:52;5.40;;;3.45;;
71106;SDS011;58763;47.982;11.516;2022-08-19T03:27:18;6.32;;;3.85;;
71106;SDS011;58763;47.982;11.516;2022-08-19T03:29:44;6.15;;;3.70;;
71106;SDS011;58763;47.982;11.516;2022-08-19T03:32:10;7.28;;;3.85;;
71106;SDS011;58763;47.982;11.516;2022-08-19T03:34:36;6.32;;;3.30;;
71106;SDS011;58763;47.982;11.516;2022-08-19T03:37:07;6.40;;;4.20;;
71106;SDS011;58763;47.982;11.516;2022-08-19T03:39:35;5.47;;;3.20;;
71106;SDS011;58763;47.982;11.516;2022-08-19T03:42:02;5.28;;;3.40;;
71106;SDS011;58763;47.982;11.516;2022-08-19T03:44:28;5.65;;;3.58;;
71106;SDS011;58763;47.982;11.516;2022-08-19T03:46:55;6.22;;;3.33;;
71106;SDS011;58763;47.982;11.516;2022-08-19T03:49:22;5.85;;;3.58;;
71106;SDS011;58763;47.982;11.516;2022-08-19T03:51:50;6.93;;;3.33;;
71106;SDS011;58763;47.982;11.516;2022-08-19T03:54:17;5.15;;;3.30;;
71106;SDS011;58763;47.982;11.516;2022-08-19T03:56:46;5.00;;;3.47;;
71106;SDS011;58763;47.982;11.516;2022-08-19T03:59:15;5.32;;;3.40;;
71106;SDS011;58763;47.982;11.516;2022-08-19T04:01:44;6.20;;;3.45;;
71106;SDS011;58763;47.982;11.516;2022-08-19T04:04:10;5.72;;;3.38;;
71106;SDS011;58763;47.982;11.516;2022-08-19T04:06:37;4.63;;;3.00;;
71106;SDS011;58763;47.982;11.516;2022-08-19T04:09:04;5.57;;;3.47;;
71106;SDS011;58763;47.982;11.516;2022-08-19T04:11:36;5.88;;;3.10;;
71106;SDS011;58763;47.982;11.516;2022-08-19T04:14:07;4.57;;;2.80;;
71106;SDS011;58763;47.982;11.516;2022-08-19T04:16:33;5.22;;;3.05;;
71106;SDS011;58763;47.982;11.516;2022-08-19T04:18:59;5.50;;;2.72;;
71106;SDS011;58763;47.982;11.516;2022-08-19T04:21:26;4.82;;;3.15;;
71106;SDS011;58763;47.982;11.516;2022-08-19T04:23:54;4.65;;;3.05;;
71106;SDS011;58763;47.982;11.516;2022-08-19T04:26:22;6.57;;;3.15;;
71106;SDS011;58763;47.982;11.516;2022-08-19T04:28:57;4.90;;;3.35;;
71106;SDS011;58763;47.982;11.516;2022-08-19T04:31:25;5.25;;;3.45;;
71106;SDS011;58763;47.982;11.516;2022-08-19T04:33:53;5.03;;;3.33;;
71106;SDS011;58763;47.982;11.516;2022-08-19T04:36:21;6.28;;;2.60;;
71106;SDS011;58763;47.982;11.516;2022-08-19T04:38:49;4.83;;;2.90;;
71106;SDS011;58763;47.982;11.516;2022-08-19T04:41:18;4.90;;;2.80;;
71106;SDS011;58763;47.982;11.516;2022-08-19T04:44:02;6.15;;;3.13;;
71106;SDS011;58763;47.982;11.516;2022-08-19T04:46:28;5.18;;;3.20;;
71106;SDS011;58763;47.982;11.516;2022-08-19T04:48:55;5.07;;;2.85;;
71106;SDS011;58763;47.982;11.516;2022-08-19T04:51:22;5.20;;;2.80;;
71106;SDS011;58763;47.982;11.516;2022-08-19T04:53:48;5.03;;;2.90;;
71106;SDS011;58763;47.982;11.516;2022-08-19T04:56:15;5.07;;;2.70;;
71106;SDS011;58763;47.982;11.516;2022-08-19T04:58:42;5.18;;;2.70;;
71106;SDS011;58763;47.982;11.516;2022-08-19T05:01:11;4.32;;;2.72;;
71106;SDS011;58763;47.982;11.516;2022-08-19T05:03:43;4.65;;;2.55;;
71106;SDS011;58763;47.982;11.516;2022-08-19T05:06:10;4.30;;;2.72;;
71106;SDS011;58763;47.982;11.516;2022-08-19T05:08:39;5.10;;;2.70;;
71106;SDS011;58763;47.982;11.516;2022-08-19T05:11:09;4.38;;;2.72;;
71106;SDS011;58763;47.982;11.516;2022-08-19T05:13:37;4.93;;;2.72;;
71106;SDS011;58763;47.982;11.516;2022-08-19T05:16:03;4.50;;;2.60;;
71106;SDS011;58763;47.982;11.516;2022-08-19T05:18:28;4.55;;;2.70;;
71106;SDS011;58763;47.982;11.516;2022-08-19T05:21:13;4.93;;;2.53;;
71106;SDS011;58763;47.982;11.516;2022-08-19T05:23:59;5.28;;;3.08;;
71106;SDS011;58763;47.982;11.516;2022-08-19T05:26:25;4.20;;;2.65;;
71106;SDS011;58763;47.982;11.516;2022-08-19T05:28:51;4.95;;;3.17;;
71106;SDS011;58763;47.982;11.516;2022-08-19T05:31:17;4.20;;;2.53;;
71106;SDS011;58763;47.982;11.516;2022-08-19T05:33:43;4.63;;;2.60;;
71106;SDS011;58763;47.982;11.516;2022-08-19T05:36:09;4.90;;;2.60;;
71106;SDS011;58763;47.982;11.516;2022-08-19T05:38:34;6.60;;;2.70;;
71106;SDS011;58763;47.982;11.516;2022-08-19T05:41:09;4.90;;;2.85;;
71106;SDS011;58763;47.982;11.516;2022-08-19T05:43:36;4.97;;;2.70;;
71106;SDS011;58763;47.982;11.516;2022-08-19T05:46:02;5.15;;;2.50;;
71106;SDS011;58763;47.982;11.516;2022-08-19T05:48:31;5.05;;;2.38;;
71106;SDS011;58763;47.982;11.516;2022-08-19T05:51:03;4.82;;;2.50;;
71106;SDS011;58763;47.982;11.516;2022-08-19T05:53:33;5.72;;;3.50;;
71106;SDS011;58763;47.982;11.516;2022-08-19T05:56:06;4.88;;;3.13;;
71106;SDS011;58763;47.982;11.516;2022-08-19T05:58:33;6.07;;;2.60;;
71106;SDS011;58763;47.982;11.516;2022-08-19T06:00:59;4.20;;;2.55;;
71106;SDS011;58763;47.982;11.516;2022-08-19T06:03:32;5.47;;;2.53;;
71106;SDS011;58763;47.982;11.516;2022-08-19T06:05:58;4.25;;;2.53;;
71106;SDS011;58763;47.982;11.516;2022-08-19T06:08:28;6.15;;;2.95;;
71106;SDS011;58763;47.982;11.516;2022-08-19T06:10:53;5.63;;;2.70;;
71106;SDS011;58763;47.982;11.516;2022-08-19T06:13:20;5.15;;;2.85;;
71106;SDS011;58763;47.982;11.516;2022-08-19T06:15:47;5.60;;;3.17;;
71106;SDS011;58763;47.982;11.516;2022-08-19T06:18:14;4.82;;;2.83;;
71106;SDS011;58763;47.982;11.516;2022-08-19T06:20:40;6.15;;;2.83;;
71106;SDS011;58763;47.982;11.516;2022-08-19T06:23:06;4.60;;;2.50;;
71106;SDS011;58763;47.982;11.516;2022-08-19T06:25:32;6.32;;;3.00;;
71106;SDS011;58763;47.982;11.516;2022-08-19T06:27:57;7.43;;;3.28;;
71106;SDS011;58763;47.982;11.516;2022-08-19T06:30:23;5.25;;;2.80;;
71106;SDS011;58763;47.982;11.516;2022-08-19T06:32:48;4.40;;;2.80;;
71106;SDS011;58763;47.982;11.516;2022-08-19T06:35:14;4.65;;;3.03;;
71106;SDS011;58763;47.982;11.516;2022-08-19T06:37:40;5.65;;;3.40;;
71106;SDS011;58763;47.982;11.516;2022-08-19T06:40:06;6.28;;;3.40;;
71106;SDS011;58763;47.982;11.516;2022-08-19T06:42:34;4.57;;;2.72;;
71106;SDS011;58763;47.982;11.516;2022-08-19T06:45:00;5.75;;;3.42;;
71106;SDS011;58763;47.982;11.516;2022-08-19T06:47:28;6.50;;;3.38;;
71106;SDS011;58763;47.982;11.516;2022-08-19T06:49:54;5.78;;;3.92;;
71106;SDS011;58763;47.982;11.516;2022-08-19T06:52:25;5.80;;;3.63;;
71106;SDS011;58763;47.982;11.516;2022-08-19T06:54:50;5.95;;;3.58;;
71106;SDS011;58763;47.982;11.516;2022-08-19T06:57:16;5.97;;;3.05;;
71106;SDS011;58763;47.982;11.516;2022-08-19T06:59:42;6.32;;;3.45;;
71106;SDS011;58763;47.982;11.516;2022-08-19T07:02:07;5.57;;;3.88;;
71106;SDS011;58763;47.982;11.516;2022-08-19T07:04:34;6.05;;;3.78;;
71106;SDS011;58763;47.982;11.516;2022-08-19T07:07:04;5.32;;;3.47;;
71106;SDS011;58763;47.982;11.516;2022-08-19T07:09:34;5.82;;;3.67;;
71106;SDS011;58763;47.982;11.516;2022-08-19T07:12:02;8.05;;;4.65;;
71106;SDS011;58763;47.982;11.516;2022-08-19T07:14:29;7.95;;;4.30;;
71106;SDS011;58763;47.982;11.516;2022-08-19T07:16:55;8.65;;;5.13;;
71106;SDS011;58763;47.982;11.516;2022-08-19T07:19:23;10.65;;;6.05;;
71106;SDS011;58763;47.982;11.516;2022-08-19T07:21:52;10.75;;;5.97;;
71106;SDS011;58763;47.982;11.516;2022-08-19T07:24:18;9.73;;;5.90;;
71106;SDS011;58763;47.982;11.516;2022-08-19T07:26:45;10.02;;;6.50;;
71106;SDS011;58763;47.982;11.516;2022-08-19T07:29:11;10.70;;;6.55;;
71106;SDS011;58763;47.982;11.516;2022-08-19T07:31:37;10.18;;;6.47;;
71106;SDS011;58763;47.982;11.516;2022-08-19T07:34:04;12.00;;;6.95;;
71106;SDS011;58763;47.982;11.516;2022-08-19T07:36:34;11.15;;;6.85;;
71106;SDS011;58763;47.982;11.516;2022-08-19T07:39:14;11.50;;;6.65;;
71106;SDS011;58763;47.982;11.516;2022-08-19T07:41:42;13.70;;;8.07;;
71106;SDS011;58763;47.982;11.516;2022-08-19T07:44:08;11.70;;;7.55;;
71106;SDS011;58763;47.982;11.516;2022-08-19T07:46:35;14.48;;;7.85;;
71106;SDS011;58763;47.982;11.516;2022-08-19T07:49:03;13.65;;;8.15;;
71106;SDS011;58763;47.982;11.516;2022-08-19T07:51:29;12.05;;;8.13;;
71106;SDS011;58763;47.982;11.516;2022-08-19T07:53:55;11.63;;;7.75;;
71106;SDS011;58763;47.982;11.516;2022-08-19T07:56:21;12.48;;;7.63;;
71106;SDS011;58763;47.982;11.516;2022-08-19T07:58:47;13.30;;;8.23;;
71106;SDS011;58763;47.982;11.516;2022-08-19T08:01:17;11.48;;;7.38;;
71106;SDS011;58763;47.982;11.516;2022-08-19T08:03:45;11.73;;;7.57;;
71106;SDS011;58763;47.982;11.516;2022-08-19T08:06:29;11.27;;;6.78;;
71106;SDS011;58763;47.982;11.516;2022-08-19T08:09:13;10.40;;;6.22;;
71106;SDS011;58763;47.982;11.516;2022-08-19T08:12:08;9.50;;;6.18;;
71106;SDS011;58763;47.982;11.516;2022-08-19T08:14:45;10.80;;;6.53;;
71106;SDS011;58763;47.982;11.516;2022-08-19T08:17:13;10.07;;;6.38;;
71106;SDS011;58763;47.982;11.516;2022-08-19T08:19:41;10.90;;;6.75;;
71106;SDS011;58763;47.982;11.516;2022-08-19T08:22:07;9.93;;;6.38;;
71106;SDS011;58763;47.982;11.516;2022-08-19T08:24:53;10.68;;;7.32;;
71106;SDS011;58763;47.982;11.516;2022-08-19T08:27:19;11.70;;;7.15;;
71106;SDS011;58763;47.982;11.516;2022-08-19T08:29:45;11.95;;;7.63;;
71106;SDS011;58763;47.982;11.516;2022-08-19T08:32:10;12.77;;;7.32;;
71106;SDS011;58763;47.982;11.516;2022-08-19T08:34:35;11.52;;;7.70;;
71106;SDS011;58763;47.982;11.516;2022-08-19T08:37:02;12.55;;;7.90;;
71106;SDS011;58763;47.982;11.516;2022-08-19T08:39:28;12.00;;;8.18;;
71106;SDS011;58763;47.982;11.516;2022-08-19T08:41:57;14.38;;;8.30;;
71106;SDS011;58763;47.982;11.516;2022-08-19T08:44:39;13.73;;;8.88;;
71106;SDS011;58763;47.982;11.516;2022-08-19T08:47:15;12.20;;;8.38;;
71106;SDS011;58763;47.982;11.516;2022-08-19T08:49:51;11.57;;;7.35;;
71106;SDS011;58763;47.982;11.516;2022-08-19T08:52:22;11.18;;;7.50;;
71106;SDS011;58763;47.982;11.516;2022-08-19T08:54:52;13.68;;;8.38;;
71106;SDS011;58763;47.982;11.516;2022-08-19T08:57:23;13.68;;;7.53;;
71106;SDS011;58763;47.982;11.516;2022-08-19T08:59:53;12.30;;;8.00;;
71106;SDS011;58763;47.982;11.516;2022-08-19T09:02:22;12.50;;;8.13;;
71106;SDS011;58763;47.982;11.516;2022-08-19T09:04:47;15.63;;;8.32;;
71106;SDS011;58763;47.982;11.516;2022-08-19T09:07:28;14.02;;;7.90;;
71106;SDS011;58763;47.982;11.516;2022-08-19T09:10:16;13.65;;;8.93;;
71106;SDS011;58763;47.982;11.516;2022-08-19T09:12:58;16.55;;;8.98;;
71106;SDS011;58763;47.982;11.516;2022-08-19T09:15:40;13.95;;;8.70;;
71106;SDS011;58763;47.982;11.516;2022-08-19T09:18:09;15.30;;;9.23;;
71106;SDS011;58763;47.982;11.516;2022-08-19T09:20:36;13.73;;;8.65;;
71106;SDS011;58763;47.982;11.516;2022-08-19T09:23:01;14.32;;;8.98;;
71106;SDS011;58763;47.982;11.516;2022-08-19T09:25:27;13.68;;;9.10;;
71106;SDS011;58763;47.982;11.516;2022-08-19T09:27:53;15.70;;;9.27;;
71106;SDS011;58763;47.982;11.516;2022-08-19T09:30:25;15.38;;;10.18;;
71106;SDS011;58763;47.982;11.516;2022-08-19T09:32:53;15.25;;;9.32;;
71106;SDS011;58763;47.982;11.516;2022-08-19T09:35:20;15.70;;;10.02;;
71106;SDS011;58763;47.982;11.516;2022-08-19T09:37:47;16.65;;;10.60;;
71106;SDS011;58763;47.982;11.516;2022-08-19T09:40:14;16.40;;;10.32;;
71106;SDS011;58763;47.982;11.516;2022-08-19T09:42:41;16.38;;;10.52;;
71106;SDS011;58763;47.982;11.516;2022-08-19T09:45:09;17.35;;;10.63;;
71106;SDS011;58763;47.982;11.516;2022-08-19T09:47:35;16.88;;;10.55;;
71106;SDS011;58763;47.982;11.516;2022-08-19T09:50:04;16.35;;;10.18;;
71106;SDS011;58763;47.982;11.516;2022-08-19T09:52:31;15.63;;;9.50;;
71106;SDS011;58763;47.982;11.516;2022-08-19T09:54:56;16.35;;;10.00;;
71106;SDS011;58763;47.982;11.516;2022-08-19T09:57:22;14.88;;;9.75;;
71106;SDS011;58763;47.982;11.516;2022-08-19T09:59:47;13.23;;;8.73;;
71106;SDS011;58763;47.982;11.516;2022-08-19T10:02:13;12.70;;;8.05;;
71106;SDS011;58763;47.982;11.516;2022-08-19T10:04:38;10.75;;;7.40;;
71106;SDS011;58763;47.982;11.516;2022-08-19T10:07:23;13.50;;;8.20;;
71106;SDS011;58763;47.982;11.516;2022-08-19T10:09:48;13.38;;;8.18;;
71106;SDS011;58763;47.982;11.516;2022-08-19T10:12:13;11.40;;;7.82;;
71106;SDS011;58763;47.982;11.516;2022-08-19T10:14:40;11.63;;;7.30;;
71106;SDS011;58763;47.982;11.516;2022-08-19T10:17:06;10.93;;;7.10;;
71106;SDS011;58763;47.982;11.516;2022-08-19T10:19:31;11.35;;;6.88;;
71106;SDS011;58763;47.982;11.516;2022-08-19T10:22:04;11.15;;;6.88;;
71106;SDS011;58763;47.982;11.516;2022-08-19T10:24:32;12.73;;;6.63;;
71106;SDS011;58763;47.982;11.516;2022-08-19T10:26:59;11.00;;;6.75;;
71106;SDS011;58763;47.982;11.516;2022-08-19T10:29:28;11.83;;;7.30;;
71106;SDS011;58763;47.982;11.516;2022-08-19T10:31:55;11.13;;;7.20;;
71106;SDS011;58763;47.982;11.516;2022-08-19T10:34:22;9.88;;;6.90;;
71106;SDS011;58763;47.982;11.516;2022-08-19T10:36:49;9.90;;;7.03;;
71106;SDS011;58763;47.982;11.516;2022-08-19T10:39:15;12.57;;;6.95;;
71106;SDS011;58763;47.982;11.516;2022-08-19T10:41:40;9.52;;;6.70;;
71106;SDS011;58763;47.982;11.516;2022-08-19T10:44:09;10.70;;;6.15;;
71106;SDS011;58763;47.982;11.516;2022-08-19T10:46:37;8.73;;;6.43;;
71106;SDS011;58763;47.982;11.516;2022-08-19T10:49:05;10.38;;;6.07;;
71106;SDS011;58763;47.982;11.516;2022-08-19T10:51:31;9.40;;;5.95;;
71106;SDS011;58763;47.982;11.516;2022-08-19T10:54:15;11.77;;;6.15;;
71106;SDS011;58763;47.982;11.516;2022-08-19T10:56:41;8.95;;;5.22;;
71106;SDS011;58763;47.982;11.516;2022-08-19T10:59:19;9.73;;;5.38;;
71106;SDS011;58763;47.982;11.516;2022-08-19T11:01:50;8.00;;;5.75;;
71106;SDS011;58763;47.982;11.516;2022-08-19T11:04:16;9.27;;;5.70;;
71106;SDS011;58763;47.982;11.516;2022-08-19T11:06:43;8.50;;;5.43;;
71106;SDS011;58763;47.982;11.516;2022-08-19T11:09:13;8.38;;;5.63;;
71106;SDS011;58763;47.982;11.516;2022-08-19T11:11:40;8.75;;;5.70;;
71106;SDS011;58763;47.982;11.516;2022-08-19T11:14:15;7.78;;;5.03;;
71106;SDS011;58763;47.982;11.516;2022-08-19T11:16:43;8.43;;;4.80;;
71106;SDS011;58763;47.982;11.516;2022-08-19T11:19:10;7.55;;;5.30;;
71106;SDS011;58763;47.982;11.516;2022-08-19T11:21:38;6.30;;;4.10;;
71106;SDS011;58763;47.982;11.516;2022-08-19T11:24:07;7.38;;;4.65;;
71106;SDS011;58763;47.982;11.516;2022-08-19T11:26:37;6.55;;;4.20;;
71106;SDS011;58763;47.982;11.516;2022-08-19T11:29:04;5.93;;;3.90;;
71106;SDS011;58763;47.982;11.516;2022-08-19T11:31:32;5.70;;;4.18;;
71106;SDS011;58763;47.982;11.516;2022-08-19T11:34:01;5.73;;;3.80;;
71106;SDS011;58763;47.982;11.516;2022-08-19T11:36:29;6.65;;;3.60;;
71106;SDS011;58763;47.982;11.516;2022-08-19T11:38:56;4.85;;;3.25;;
71106;SDS011;58763;47.982;11.516;2022-08-19T11:41:22;6.03;;;3.63;;
71106;SDS011;58763;47.982;11.516;2022-08-19T11:43:49;4.45;;;2.70;;
71106;SDS011;58763;47.982;11.516;2022-08-19T11:46:18;4.95;;;2.58;;
71106;SDS011;58763;47.982;11.516;2022-08-19T11:48:44;5.25;;;3.00;;
71106;SDS011;58763;47.982;11.516;2022-08-19T11:51:11;5.53;;;3.53;;
71106;SDS011;58763;47.982;11.516;2022-08-19T11:53:39;5.38;;;2.72;;
71106;SDS011;58763;47.982;11.516;2022-08-19T11:56:05;4.65;;;3.08;;
71106;SDS011;58763;47.982;11.516;2022-08-19T11:58:33;5.03;;;2.95;;
71106;SDS011;58763;47.982;11.516;2022-08-19T12:00:59;5.28;;;3.00;;
71106;SDS011;58763;47.982;11.516;2022-08-19T12:03:25;4.78;;;2.90;;
71106;SDS011;58763;47.982;11.516;2022-08-19T12:05:50;4.70;;;3.05;;
71106;SDS011;58763;47.982;11.516;2022-08-19T12:08:16;5.07;;;3.20;;
71106;SDS011;58763;47.982;11.516;2022-08-19T12:10:42;5.47;;;3.20;;
71106;SDS011;58763;47.982;11.516;2022-08-19T12:13:09;4.65;;;2.80;;
71106;SDS011;58763;47.982;11.516;2022-08-19T12:15:36;4.15;;;2.72;;
71106;SDS011;58763;47.982;11.516;2022-08-19T12:18:08;5.32;;;3.13;;
71106;SDS011;58763;47.982;11.516;2022-08-19T12:20:37;8.02;;;4.43;;
71106;SDS011;58763;47.982;11.516;2022-08-19T12:23:05;8.48;;;5.18;;
71106;SDS011;58763;47.982;11.516;2022-08-19T12:25:33;7.35;;;5.00;;
71106;SDS011;58763;47.982;11.516;2022-08-19T12:27:59;7.75;;;5.53;;
71106;SDS011;58763;47.982;11.516;2022-08-19T12:30:25;7.75;;;5.32;;
71106;SDS011;58763;47.982;11.516;2022-08-19T12:32:51;7.85;;;5.55;;
71106;SDS011;58763;47.982;11.516;2022-08-19T12:35:17;8.45;;;5.85;;
71106;SDS011;58763;47.982;11.516;2022-08-19T12:37:45;8.95;;;5.50;;
71106;SDS011;58763;47.982;11.516;2022-08-19T12:40:11;8.50;;;5.85;;
71106;SDS011;58763;47.982;11.516;2022-08-19T12:42:38;9.35;;;5.88;;
71106;SDS011;58763;47.982;11.516;2022-08-19T12:45:11;6.97;;;4.72;;
71106;SDS011;58763;47.982;11.516;2022-08-19T12:47:38;8.25;;;5.10;;
71106;SDS011;58763;47.982;11.516;2022-08-19T12:50:05;8.43;;;4.80;;
71106;SDS011;58763;47.982;11.516;2022-08-19T12:52:34;7.72;;;5.00;;
71106;SDS011;58763;47.982;11.516;2022-08-19T12:55:03;6.05;;;3.60;;
71106;SDS011;58763;47.982;11.516;2022-08-19T12:57:30;6.70;;;3.72;;
71106;SDS011;58763;47.982;11.516;2022-08-19T12:59:58;4.93;;;3.17;;
71106;SDS011;58763;47.982;11.516;2022-08-19T13:02:25;5.03;;;2.85;;
71106;SDS011;58763;47.982;11.516;2022-08-19T13:04:51;4.95;;;2.60;;
71106;SDS011;58763;47.982;11.516;2022-08-19T13:07:16;4.22;;;2.08;;
71106;SDS011;58763;47.982;11.516;2022-08-19T13:09:42;4.60;;;2.60;;
71106;SDS011;58763;47.982;11.516;2022-08-19T13:12:07;3.90;;;2.33;;
71106;SDS011;58763;47.982;11.516;2022-08-19T13:14:38;3.83;;;2.30;;
71106;SDS011;58763;47.982;11.516;2022-08-19T13:17:05;3.55;;;1.90;;
71106;SDS011;58763;47.982;11.516;2022-08-19T13:19:31;3.30;;;1.73;;
71106;SDS011;58763;47.982;11.516;2022-08-19T13:21:57;3.60;;;1.77;;
71106;SDS011;58763;47.982;11.516;2022-08-19T13:24:24;3.50;;;1.75;;
71106;SDS011;58763;47.982;11.516;2022-08-19T13:26:49;3.30;;;1.77;;
71106;SDS011;58763;47.982;11.516;2022-08-19T13:29:15;3.20;;;1.42;;
71106;SDS011;58763;47.982;11.516;2022-08-19T13:31:59;2.92;;;1.33;;
71106;SDS011;58763;47.982;11.516;2022-08-19T13:34:43;2.58;;;1.30;;
71106;SDS011;58763;47.982;11.516;2022-08-19T13:37:10;2.55;;;1.17;;
71106;SDS011;58763;47.982;11.516;2022-08-19T13:39:35;2.58;;;1.30;;
71106;SDS011;58763;47.982;11.516;2022-08-19T13:42:01;2.80;;;1.20;;
71106;SDS011;58763;47.982;11.516;2022-08-19T13:44:29;2.78;;;1.38;;
71106;SDS011;58763;47.982;11.516;2022-08-19T13:46:55;2.88;;;1.10;;
71106;SDS011;58763;47.982;11.516;2022-08-19T13:51:50;2.38;;;1.20;;
71106;SDS011;58763;47.982;11.516;2022-08-19T13:54:16;3.13;;;1.13;;
71106;SDS011;58763;47.982;11.516;2022-08-19T13:56:42;3.08;;;1.30;;
71106;SDS011;58763;47.982;11.516;2022-08-19T13:59:09;3.35;;;1.30;;
71106;SDS011;58763;47.982;11.516;2022-08-19T14:01:35;3.28;;;1.50;;
71106;SDS011;58763;47.982;11.516;2022-08-19T14:04:02;2.83;;;1.48;;
71106;SDS011;58763;47.982;11.516;2022-08-19T14:06:28;3.38;;;1.30;;
71106;SDS011;58763;47.982;11.516;2022-08-19T14:08:54;3.20;;;1.50;;
71106;SDS011;58763;47.982;11.516;2022-08-19T14:11:19;3.05;;;1.35;;
71106;SDS011;58763;47.982;11.516;2022-08-19T14:13:45;2.58;;;1.27;;
71106;SDS011;58763;47.982;11.516;2022-08-19T14:16:12;3.22;;;1.67;;
71106;SDS011;58763;47.982;11.516;2022-08-19T14:18:39;2.45;;;1.30;;
71106;SDS011;58763;47.982;11.516;2022-08-19T14:21:05;2.90;;;1.42;;
71106;SDS011;58763;47.982;11.516;2022-08-19T14:23:32;2.50;;;1.15;;
71106;SDS011;58763;47.982;11.516;2022-08-19T14:26:06;4.43;;;1.60;;
71106;SDS011;58763;47.982;11.516;2022-08-19T14:28:37;3.17;;;1.38;;
71106;SDS011;58763;47.982;11.516;2022-08-19T14:31:04;2.78;;;1.40;;
71106;SDS011;58763;47.982;11.516;2022-08-19T14:33:29;2.65;;;1.30;;
71106;SDS011;58763;47.982;11.516;2022-08-19T14:35:55;2.88;;;1.27;;
71106;SDS011;58763;47.982;11.516;2022-08-19T14:38:21;2.67;;;1.38;;
71106;SDS011;58763;47.982;11.516;2022-08-19T14:40:46;2.75;;;1.30;;